My Meet Scores
Rebecca Salim, Y.W.C.A Tumblettes-Tumblers - MyMeetScores.com
Top100 | Top Teams | Upcoming Meets | Completed Meets | Latest | Add Scores | Help| Support | Bookmark and Share

Rebecca Salim, Y.W.C.A Tumblettes-Tumblers
Personal Bests
LevelVault BarsBeamFloorAA
59.8008.875 9.0759.62536.975
69.1508.600 8.7009.60036.050
79.6009.100 9.3009.60037.425
89.2758.700 9.1259.77535.400
Scores on America's Top 100as of 12.12.2019
Year Level Vault Bars Beam Floor AA
2014 59.800
2018 89.775

Click here to view our
exclusive Top 100 Collection

Order by December 12
Meet Scores
Date Meet Team Session Level Division Vault Bars Beam Floor AA
2019-03-08 2019 NYS Level 7 & 8 State Championship Y.W.C.A Tumblettes-Tumblers 07 8 Sr E 8.300 11T 0.000 16T 8.825 6T 9.050 6 26.175 16
2019-02-22 Heartland Spring Classic Y.W.C.A Tumblettes-Tumblers 2 8 Older 8.700 6T 6.900 14 8.025 16 9.325 5 32.950 13
2019-02-08 Popstar Invitational Y.W.C.A Tumblettes-Tumblers 9 8 All 9.100 5 8.050 7 8.800 3T 9.450 1 35.400 2
2019-01-25 Kinetic Kids Invitational 2019 Y.W.C.A Tumblettes-Tumblers 7 8 All 8.650 4 8.200 3 8.950 2 9.225 2 35.025 2
2018-04-06 2018 New York Level 7/8 State Championship Y.W.C.A Tumblettes-Tumblers 1 8 Sr C 8.900 8 6.150 17 8.600 9 9.025 5T 32.675 13
2018-03-24 Peace Love Gymnastics Invitational Y.W.C.A Tumblettes-Tumblers 8 8 All 8.900 1 8.450 1 8.150 2 9.000 1 34.500 1
2018-03-01 Holiday Costume Cup 2018 Y.W.C.A Tumblettes-Tumblers 2 8 Older 8.650 2 7.400 2 7.700 3T 9.775 1 33.525 2
2018-01-20 Kindlemann Winter Classic Y.W.C.A Tumblettes-Tumblers 2 8 senior 8.600 2* 7.800 4 7.100 7 8.775 3 32.275 3T
2017-12-02 I Love Gymnastics Y.W.C.A Tumblettes-Tumblers 6 8 Senior 8.750 3 8.700 3 8.350 3 9.550 2 35.350 3
2017-11-17 2017 Judges Cup Balloon Classic Y.W.C.A Tumblettes-Tumblers 3 8 15+ 8.800 2 6.550 6 8.500 3 9.150 2 33.000 5
2017-03-31 2017 New York Level 7/8 States Y.W.C.A Tumblettes-Tumblers 84 8 Sr A 9.200 6 8.350 13 8.700 10T 8.925 10 35.175 8
2017-03-10 Flippin' Into Spring Y.W.C.A Tumblettes-Tumblers 6 8 Middle 7.750 7 7.200 7 9.125 4 9.000 3 33.075 5
2017-03-03 Long Island Classic Y.W.C.A Tumblettes-Tumblers 5 8 Older 8.600 6 4.300 12 7.925 12 9.400 1 30.225 12
2017-02-17 Sweetheart Invitational Y.W.C.A Tumblettes-Tumblers 09 8 Sr. 9.275 1 6.350 13 7.900 12 9.350 1 32.875 10
2017-02-03 Popstar Invitational Y.W.C.A Tumblettes-Tumblers 3 8 Older 9.075 1 6.900 9 7.500 9 9.525 1 33.000 7
2017-01-13 New York Celebration Y.W.C.A Tumblettes-Tumblers 06 8 Older 8.425 6T 0.000 8 7.900 8 8.575 5 24.900 6
2016-12-17 Solstice Celebration Y.W.C.A Tumblettes-Tumblers 6 8 Middle 9.050 1T 7.800 4 7.450 7 9.350 1 33.650 4
2016-12-02 Kick Off Classic Y.W.C.A Tumblettes-Tumblers 3 8 Older 9.175 1 6.950 10 8.625 5 8.450 11 33.200 7
2016-04-01 2016 New York Level 7 and 8 State Championships Y.W.C.A Tumblettes-Tumblers 09 7 Sr B 9.250 4T 8.375 9 8.500 11 9.375 4T 35.500 8
2016-02-12 Sweetheart Invitational Y.W.C.A Tumblettes-Tumblers 04 7 Sr B 9.600 1 9.100 2 9.200 2 9.525 1 37.425 1
2016-01-29 Team Challenge 2016 Y.W.C.A Tumblettes-Tumblers 1R 7 Senior 9.400 4 6.775 11 8.500 7 9.275 4T 33.950 6
2016-01-15 FGA Popstar Invitational Y.W.C.A Tumblettes-Tumblers 4 7 Older 9.500 1 8.500 3 8.475 8 9.600 1 36.075 2
2015-12-19 Solstice Celebration Y.W.C.A Tumblettes-Tumblers 4 7 Older 9.300 2 8.800 2 9.300 1 9.125 3 36.525 1
2015-12-04 Kick Off Invite Y.W.C.A Tumblettes-Tumblers 07 7 Senior 9.225 10T 6.775 16 9.150 1 9.200 3T 34.350 8
2015-04-10 2015 New York Level 7, 8 States Y.W.C.A Tumblettes-Tumblers 8 7 Jr E 9.075 13T 7.650 14 8.700 8 9.050 8T 34.475 11
2015-03-13 2015 Flip For A Cure Invitational Y.W.C.A Tumblettes-Tumblers 07 7 12 & up 8.550 7 7.000 15 8.500 8T 9.350 6 33.400 15
2015-02-21 2015 Harlem Invitational Y.W.C.A Tumblettes-Tumblers 5 7 12 & Under 9.050 3T 7.700 3 7.250 3 8.600 3 32.600 3
2015-02-06 FGA Popstar Invitational Y.W.C.A Tumblettes-Tumblers 9 7 Older 9.550 4T 8.075 13 8.750 8T 9.350 6 35.725 7
2015-01-16 2015 Cirque de Galaxy Y.W.C.A Tumblettes-Tumblers 08 7 11 and 12 9.000 7T 8.200 9T 8.000 12 8.300 10T 33.500 11T
2014-12-05 Kick Off Classic Y.W.C.A Tumblettes-Tumblers 1 6 Junior 9.150 2 8.600 9T 8.700 8T 9.600 1 36.050 3
2014-05-17 2014 New York Level 5 State Championships Y.W.C.A Tumblettes-Tumblers 3 5 Sr A 9.800 1 7.550 16 9.075 6 9.625 1 36.050 5
2014-04-25 Flower Festival Y.W.C.A Tumblettes-Tumblers 1 5 All Ages 9.600 2T 8.875 22 9.000 14 9.500 2 36.975 5
2014-02-28 Long Island Classic Y.W.C.A Tumblettes-Tumblers B6 5 Middle 9.600 1 7.500 13T 8.300 15 9.600 1 35.000 9
2014-01-17 Cirque de Galaxy 2014 Y.W.C.A Tumblettes-Tumblers 06 5 12 & Over 9.175 1 7.550 10 8.100 11 9.175 1 34.000 6
Get your scores on
a t-shirt, pin, or hoodie

Order by December 12

www.lazysuits.com